Aviation Digital Data Service (ADDS)

Output produced by METARs form (0739 UTC 19 February 2019)
found at http://www.aviationweather.gov/metar/data/
 
Forecast for: OMAL (AL AIN INTNL ARP, AE)
Text: TAF OMAL 190500Z 1906/2012 06005KT 8000 NSC
Forecast period: 0600 UTC 19 February 2019 to 1200 UTC 20 February 2019
Forecast type: FROM: standard forecast or significant change
Winds: from the ENE (60 degrees) at 6 MPH (5 knots; 2.6 m/s)
Visibility: 5 miles (8 km)
Ceiling: unknown
Clouds: missing
Weather: no significant weather forecast for this period
Text: BECMG 1906/1908 VRB02KT
Forecast period: 0600 to 0900 UTC 19 February 2019
Forecast type: BECOMING: Conditions expected to become as follows by 0800 UTC 19 February 2019
Winds: variable direction winds at 2 MPH (2 knots; 1.0 m/s)
Visibility: 5 miles (8 km)
Ceiling: unknown
Clouds: missing
Weather: no significant weather forecast for this period
Text: BECMG 1909/1911 32011KT
Forecast period: 0900 UTC 19 February 2019 to 1200 UTC 20 February 2019
Forecast type: BECOMING: Conditions expected to become as follows by 1100 UTC 19 February 2019
Winds: from the NW (320 degrees) at 13 MPH (11 knots; 5.7 m/s)
Visibility: 5 miles (8 km)
Ceiling: unknown
Clouds: missing
Weather: no significant weather forecast for this period